PWSweather.com
Personal Weather Stations
Station Observations
KD0MBL
Pueblo West, Pueblo West, CO 81007

Pueblo WestPueblo West, CO 81007

Lat: 38.380276, Lon: -104.7134279

Elevation: 5220

Station Type: Davis VantageVue

Latest ConditionsUpdated 1:07:18 PM MST Wednesday, Mar 4, 2015
Currently Today's Max Today's Min Today's Average
Temperature 19.6°F-6.9°C 24.3°F-4.3°C 13.7°F-10.2°C 19.3°F-7.1°C
Dew Point 15.0°F-9.4°C 22.8°F-5.1°C 11.1°F-11.6°C 16.4°F-8.7°C
Winds 5.0 mph E8.0 kmh E 19.0 mph NNE30.6 kmh NNE - 8.1 mph 13.0 kmh
Wind Gusts 8.0 mph12.9 kmh 26.0 mph41.8 kmh - -
Humidity 82% 94% 76% 88%
Pressure 30.42 in1030.1 mb 30.46 in1031.5 mb 30.06 in1017.9 mb -
Hour Temp Dew Point Humidity Winds Wind Gusts Pressure Precip Precip Rate Daily Precip Total
01:07 PM 19.6°F-6.9°C 15.0°F-9.4°C 82% 5.0 mph E8.0 kmh E 8.0 mph12.9 kmh 30.42 in1030.1 mb 0.00 in0.0 mm 0.00 in/hr0.0 mm/hr 0.00 in0.0 mm
01:02 PM 19.6°F-6.9°C 14.7°F-9.6°C 81% 5.0 mph ESE8.0 kmh ESE 9.0 mph14.5 kmh 30.43 in1030.5 mb 0.00 in0.0 mm 0.00 in/hr0.0 mm/hr 0.00 in0.0 mm
12:57 PM 19.6°F-6.9°C 13.9°F-10.1°C 78% 5.0 mph ESE8.0 kmh ESE 9.0 mph14.5 kmh 30.43 in1030.5 mb 0.00 in0.0 mm 0.00 in/hr0.0 mm/hr 0.00 in0.0 mm
12:52 PM 19.4°F-7.0°C 13.4°F-10.3°C 77% 6.0 mph E9.7 kmh E 10.0 mph16.1 kmh 30.43 in1030.5 mb 0.00 in0.0 mm 0.00 in/hr0.0 mm/hr 0.00 in0.0 mm
12:47 PM 19.4°F-7.0°C 13.1°F-10.5°C 76% 5.0 mph ESE8.0 kmh ESE 10.0 mph16.1 kmh 30.43 in1030.5 mb 0.00 in0.0 mm 0.00 in/hr0.0 mm/hr 0.00 in0.0 mm
12:42 PM 19.5°F-6.9°C 13.2°F-10.4°C 76% 5.0 mph ESE8.0 kmh ESE 9.0 mph14.5 kmh 30.43 in1030.5 mb 0.00 in0.0 mm 0.00 in/hr0.0 mm/hr 0.00 in0.0 mm
12:37 PM 19.9°F-6.7°C 13.6°F-10.2°C 76% 4.0 mph SE6.4 kmh SE 8.0 mph12.9 kmh 30.43 in1030.5 mb 0.00 in0.0 mm 0.00 in/hr0.0 mm/hr 0.00 in0.0 mm
12:32 PM 19.7°F-6.8°C 14.0°F-10.0°C 78% 4.0 mph ESE6.4 kmh ESE 10.0 mph16.1 kmh 30.44 in1030.8 mb 0.00 in0.0 mm 0.00 in/hr0.0 mm/hr 0.00 in0.0 mm
12:27 PM 19.4°F-7.0°C 13.1°F-10.5°C 76% 5.0 mph ESE8.0 kmh ESE 10.0 mph16.1 kmh 30.44 in1030.8 mb 0.00 in0.0 mm 0.00 in/hr0.0 mm/hr 0.00 in0.0 mm
12:22 PM 19.4°F-7.0°C 13.4°F-10.3°C 77% 5.0 mph ESE8.0 kmh ESE 9.0 mph14.5 kmh 30.44 in1030.8 mb 0.00 in0.0 mm 0.00 in/hr0.0 mm/hr 0.00 in0.0 mm
12:17 PM 19.4°F-7.0°C 13.4°F-10.3°C 77% 5.0 mph ESE8.0 kmh ESE 8.0 mph12.9 kmh 30.44 in1030.8 mb 0.00 in0.0 mm 0.00 in/hr0.0 mm/hr 0.00 in0.0 mm
12:12 PM 19.1°F-7.2°C 13.1°F-10.5°C 77% 6.0 mph E9.7 kmh E 10.0 mph16.1 kmh 30.45 in1031.2 mb 0.00 in0.0 mm 0.00 in/hr0.0 mm/hr 0.00 in0.0 mm
12:07 PM 18.7°F-7.4°C 12.4°F-10.9°C 76% 5.0 mph E8.0 kmh E 10.0 mph16.1 kmh 30.45 in1031.2 mb 0.00 in0.0 mm 0.00 in/hr0.0 mm/hr 0.00 in0.0 mm
12:02 PM 18.8°F-7.3°C 12.8°F-10.7°C 77% 5.0 mph ESE8.0 kmh ESE 9.0 mph14.5 kmh 30.45 in1031.2 mb 0.00 in0.0 mm 0.00 in/hr0.0 mm/hr 0.00 in0.0 mm
11:57 AM 18.4°F-7.6°C 12.4°F-10.9°C 77% 5.0 mph SE8.0 kmh SE 8.0 mph12.9 kmh 30.45 in1031.2 mb 0.00 in0.0 mm 0.00 in/hr0.0 mm/hr 0.00 in0.0 mm
11:52 AM 18.7°F-7.4°C 12.7°F-10.7°C 77% 5.0 mph SE8.0 kmh SE 8.0 mph12.9 kmh 30.45 in1031.2 mb 0.00 in0.0 mm 0.00 in/hr0.0 mm/hr 0.00 in0.0 mm
11:47 AM 18.9°F-7.3°C 13.2°F-10.4°C 78% 5.0 mph E8.0 kmh E 8.0 mph12.9 kmh 30.45 in1031.2 mb 0.00 in0.0 mm 0.00 in/hr0.0 mm/hr 0.00 in0.0 mm
11:42 AM 19.1°F-7.2°C 13.1°F-10.5°C 77% 5.0 mph ESE8.0 kmh ESE 8.0 mph12.9 kmh 30.45 in1031.2 mb 0.00 in0.0 mm 0.00 in/hr0.0 mm/hr 0.00 in0.0 mm
11:37 AM 18.9°F-7.3°C 13.2°F-10.4°C 78% 4.0 mph SE6.4 kmh SE 6.0 mph9.7 kmh 30.45 in1031.2 mb 0.00 in0.0 mm 0.00 in/hr0.0 mm/hr 0.00 in0.0 mm
11:32 AM 18.5°F-7.5°C 12.8°F-10.7°C 78% 4.0 mph SE6.4 kmh SE 7.0 mph11.3 kmh 30.46 in1031.5 mb 0.00 in0.0 mm 0.00 in/hr0.0 mm/hr 0.00 in0.0 mm
11:27 AM 18.0°F-7.8°C 12.3°F-10.9°C 78% 5.0 mph E8.0 kmh E 9.0 mph14.5 kmh 30.46 in1031.5 mb 0.00 in0.0 mm 0.00 in/hr0.0 mm/hr 0.00 in0.0 mm
11:22 AM 18.1°F-7.7°C 12.4°F-10.9°C 78% 6.0 mph E9.7 kmh E 9.0 mph14.5 kmh 30.46 in1031.5 mb 0.00 in0.0 mm 0.00 in/hr0.0 mm/hr 0.00 in0.0 mm
11:17 AM 18.2°F-7.7°C 12.2°F-11.0°C 77% 6.0 mph ESE9.7 kmh ESE 9.0 mph14.5 kmh 30.46 in1031.5 mb 0.00 in0.0 mm 0.00 in/hr0.0 mm/hr 0.00 in0.0 mm
11:12 AM 18.6°F-7.4°C 12.9°F-10.6°C 78% 5.0 mph E8.0 kmh E 9.0 mph14.5 kmh 30.46 in1031.5 mb 0.00 in0.0 mm 0.00 in/hr0.0 mm/hr 0.00 in0.0 mm
11:07 AM 18.7°F-7.4°C 13.6°F-10.2°C 80% 5.0 mph E8.0 kmh E 9.0 mph14.5 kmh 30.45 in1031.2 mb 0.00 in0.0 mm 0.00 in/hr0.0 mm/hr 0.00 in0.0 mm
11:02 AM 18.1°F-7.7°C 13.3°F-10.4°C 81% 5.0 mph E8.0 kmh E 8.0 mph12.9 kmh 30.45 in1031.2 mb 0.00 in0.0 mm 0.00 in/hr0.0 mm/hr 0.00 in0.0 mm
10:57 AM 17.7°F-7.9°C 12.9°F-10.6°C 81% 5.0 mph ENE8.0 kmh ENE 9.0 mph14.5 kmh 30.45 in1031.2 mb 0.00 in0.0 mm 0.00 in/hr0.0 mm/hr 0.00 in0.0 mm
10:52 AM 17.1°F-8.3°C 12.3°F-10.9°C 81% 6.0 mph ENE9.7 kmh ENE 9.0 mph14.5 kmh 30.46 in1031.5 mb 0.00 in0.0 mm 0.00 in/hr0.0 mm/hr 0.00 in0.0 mm
10:47 AM 17.0°F-8.3°C 11.6°F-11.3°C 79% 6.0 mph E9.7 kmh E 11.0 mph17.7 kmh 30.45 in1031.2 mb 0.00 in0.0 mm 0.00 in/hr0.0 mm/hr 0.00 in0.0 mm
10:42 AM 17.6°F-8.0°C 12.5°F-10.8°C 80% 6.0 mph ENE9.7 kmh ENE 11.0 mph17.7 kmh 30.46 in1031.5 mb 0.00 in0.0 mm 0.00 in/hr0.0 mm/hr 0.00 in0.0 mm
10:37 AM 17.3°F-8.2°C 12.7°F-10.7°C 82% 6.0 mph ENE9.7 kmh ENE 9.0 mph14.5 kmh 30.45 in1031.2 mb 0.00 in0.0 mm 0.00 in/hr0.0 mm/hr 0.00 in0.0 mm
10:32 AM 16.9°F-8.4°C 12.1°F-11.1°C 81% 6.0 mph ENE9.7 kmh ENE 9.0 mph14.5 kmh 30.45 in1031.2 mb 0.00 in0.0 mm 0.00 in/hr0.0 mm/hr 0.00 in0.0 mm
10:27 AM 17.1°F-8.3°C 12.6°F-10.8°C 82% 6.0 mph ENE9.7 kmh ENE 9.0 mph14.5 kmh 30.45 in1031.2 mb 0.00 in0.0 mm 0.00 in/hr0.0 mm/hr 0.00 in0.0 mm
10:22 AM 17.0°F-8.3°C 12.7°F-10.7°C 83% 6.0 mph NE9.7 kmh NE 11.0 mph17.7 kmh 30.45 in1031.2 mb 0.00 in0.0 mm 0.00 in/hr0.0 mm/hr 0.00 in0.0 mm
10:17 AM 16.6°F-8.6°C 12.3°F-10.9°C 83% 5.0 mph NE8.0 kmh NE 11.0 mph17.7 kmh 30.46 in1031.5 mb 0.00 in0.0 mm 0.00 in/hr0.0 mm/hr 0.00 in0.0 mm
10:12 AM 16.6°F-8.6°C 12.1°F-11.1°C 82% 6.0 mph NE9.7 kmh NE 8.0 mph12.9 kmh 30.45 in1031.2 mb 0.00 in0.0 mm 0.00 in/hr0.0 mm/hr 0.00 in0.0 mm
10:07 AM 16.5°F-8.6°C 12.2°F-11.0°C 83% 6.0 mph NE9.7 kmh NE 10.0 mph16.1 kmh 30.45 in1031.2 mb 0.00 in0.0 mm 0.00 in/hr0.0 mm/hr 0.00 in0.0 mm
10:02 AM 16.6°F-8.6°C 12.3°F-10.9°C 83% 6.0 mph NE9.7 kmh NE 10.0 mph16.1 kmh 30.45 in1031.2 mb 0.00 in0.0 mm 0.00 in/hr0.0 mm/hr 0.00 in0.0 mm
09:57 AM 16.3°F-8.7°C 12.3°F-10.9°C 84% 6.0 mph NE9.7 kmh NE 10.0 mph16.1 kmh 30.45 in1031.2 mb 0.00 in0.0 mm 0.00 in/hr0.0 mm/hr 0.00 in0.0 mm
09:52 AM 16.0°F-8.9°C 12.0°F-11.1°C 84% 7.0 mph NE11.3 kmh NE 10.0 mph16.1 kmh 30.45 in1031.2 mb 0.00 in0.0 mm 0.00 in/hr0.0 mm/hr 0.00 in0.0 mm
09:47 AM 15.8°F-9.0°C 11.8°F-11.2°C 84% 8.0 mph NE12.9 kmh NE 11.0 mph17.7 kmh 30.45 in1031.2 mb 0.00 in0.0 mm 0.00 in/hr0.0 mm/hr 0.00 in0.0 mm
09:42 AM 15.8°F-9.0°C 12.4°F-10.9°C 86% 8.0 mph NE12.9 kmh NE 12.0 mph19.3 kmh 30.45 in1031.2 mb 0.00 in0.0 mm 0.00 in/hr0.0 mm/hr 0.00 in0.0 mm
09:37 AM 15.3°F-9.3°C 11.6°F-11.3°C 85% 9.0 mph NE14.5 kmh NE 12.0 mph19.3 kmh 30.45 in1031.2 mb 0.00 in0.0 mm 0.00 in/hr0.0 mm/hr 0.00 in0.0 mm
09:32 AM 15.3°F-9.3°C 11.6°F-11.3°C 85% 9.0 mph NE14.5 kmh NE 13.0 mph20.9 kmh 30.45 in1031.2 mb 0.00 in0.0 mm 0.00 in/hr0.0 mm/hr 0.00 in0.0 mm
09:27 AM 15.4°F-9.2°C 11.7°F-11.3°C 85% 9.0 mph NE14.5 kmh NE 13.0 mph20.9 kmh 30.44 in1030.8 mb 0.00 in0.0 mm 0.00 in/hr0.0 mm/hr 0.00 in0.0 mm
09:22 AM 15.3°F-9.3°C 11.9°F-11.2°C 86% 9.0 mph NE14.5 kmh NE 12.0 mph19.3 kmh 30.44 in1030.8 mb 0.00 in0.0 mm 0.00 in/hr0.0 mm/hr 0.00 in0.0 mm
09:17 AM 15.1°F-9.4°C 11.9°F-11.2°C 87% 9.0 mph NE14.5 kmh NE 13.0 mph20.9 kmh 30.44 in1030.8 mb 0.00 in0.0 mm 0.00 in/hr0.0 mm/hr 0.00 in0.0 mm
09:12 AM 14.8°F-9.6°C 11.6°F-11.3°C 87% 10.0 mph NE16.1 kmh NE 13.0 mph20.9 kmh 30.44 in1030.8 mb 0.00 in0.0 mm 0.00 in/hr0.0 mm/hr 0.00 in0.0 mm
09:07 AM 14.6°F-9.7°C 11.4°F-11.4°C 87% 10.0 mph NE16.1 kmh NE 13.0 mph20.9 kmh 30.44 in1030.8 mb 0.00 in0.0 mm 0.00 in/hr0.0 mm/hr 0.00 in0.0 mm
09:02 AM 14.5°F-9.7°C 11.3°F-11.5°C 87% 10.0 mph NE16.1 kmh NE 13.0 mph20.9 kmh 30.44 in1030.8 mb 0.00 in0.0 mm 0.00 in/hr0.0 mm/hr 0.00 in0.0 mm
08:57 AM 14.5°F-9.7°C 11.3°F-11.5°C 87% 10.0 mph NE16.1 kmh NE 14.0 mph22.5 kmh 30.43 in1030.5 mb 0.00 in0.0 mm 0.00 in/hr0.0 mm/hr 0.00 in0.0 mm
08:52 AM 14.4°F-9.8°C 11.5°F-11.4°C 88% 10.0 mph NE16.1 kmh NE 14.0 mph22.5 kmh 30.43 in1030.5 mb 0.00 in0.0 mm 0.00 in/hr0.0 mm/hr 0.00 in0.0 mm
08:47 AM 14.3°F-9.8°C 11.4°F-11.4°C 88% 12.0 mph NE19.3 kmh NE 14.0 mph22.5 kmh 30.43 in1030.5 mb 0.00 in0.0 mm 0.00 in/hr0.0 mm/hr 0.00 in0.0 mm
08:42 AM 14.2°F-9.9°C 11.3°F-11.5°C 88% 12.0 mph NE19.3 kmh NE 15.0 mph24.1 kmh 30.42 in1030.1 mb 0.00 in0.0 mm 0.00 in/hr0.0 mm/hr 0.00 in0.0 mm
08:37 AM 14.2°F-9.9°C 11.3°F-11.5°C 88% 12.0 mph NE19.3 kmh NE 16.0 mph25.7 kmh 30.42 in1030.1 mb 0.00 in0.0 mm 0.00 in/hr0.0 mm/hr 0.00 in0.0 mm
08:32 AM 14.2°F-9.9°C 11.3°F-11.5°C 88% 12.0 mph NE19.3 kmh NE 17.0 mph27.4 kmh 30.41 in1029.8 mb 0.00 in0.0 mm 0.00 in/hr0.0 mm/hr 0.00 in0.0 mm
08:27 AM 14.4°F-9.8°C 11.8°F-11.2°C 89% 12.0 mph NE19.3 kmh NE 19.0 mph30.6 kmh 30.41 in1029.8 mb 0.00 in0.0 mm 0.00 in/hr0.0 mm/hr 0.00 in0.0 mm
08:22 AM 14.3°F-9.8°C 11.7°F-11.3°C 89% 13.0 mph NE20.9 kmh NE 19.0 mph30.6 kmh 30.40 in1029.5 mb 0.00 in0.0 mm 0.00 in/hr0.0 mm/hr 0.00 in0.0 mm
08:17 AM 14.1°F-9.9°C 11.5°F-11.4°C 89% 14.0 mph NE22.5 kmh NE 18.0 mph29.0 kmh 30.40 in1029.5 mb 0.00 in0.0 mm 0.00 in/hr0.0 mm/hr 0.00 in0.0 mm
08:12 AM 14.1°F-9.9°C 11.5°F-11.4°C 89% 13.0 mph NE20.9 kmh NE 17.0 mph27.4 kmh 30.39 in1029.1 mb 0.00 in0.0 mm 0.00 in/hr0.0 mm/hr 0.00 in0.0 mm
08:07 AM 14.0°F-10.0°C 11.4°F-11.4°C 89% 14.0 mph NE22.5 kmh NE 20.0 mph32.2 kmh 30.38 in1028.8 mb 0.00 in0.0 mm 0.00 in/hr0.0 mm/hr 0.00 in0.0 mm
08:02 AM 13.9°F-10.1°C 11.3°F-11.5°C 89% 15.0 mph NE24.1 kmh NE 20.0 mph32.2 kmh 30.38 in1028.8 mb 0.00 in0.0 mm 0.00 in/hr0.0 mm/hr 0.00 in0.0 mm
07:57 AM 13.9°F-10.1°C 11.3°F-11.5°C 89% 15.0 mph NE24.1 kmh NE 20.0 mph32.2 kmh 30.38 in1028.8 mb 0.00 in0.0 mm 0.00 in/hr0.0 mm/hr 0.00 in0.0 mm
07:52 AM 13.9°F-10.1°C 11.3°F-11.5°C 89% 15.0 mph NE24.1 kmh NE 20.0 mph32.2 kmh 30.37 in1028.4 mb 0.00 in0.0 mm 0.00 in/hr0.0 mm/hr 0.00 in0.0 mm
07:47 AM 13.9°F-10.1°C 11.3°F-11.5°C 89% 15.0 mph NE24.1 kmh NE 18.0 mph29.0 kmh 30.37 in1028.4 mb 0.00 in0.0 mm 0.00 in/hr0.0 mm/hr 0.00 in0.0 mm
07:42 AM 13.8°F-10.1°C 11.2°F-11.6°C 89% 15.0 mph NE24.1 kmh NE 19.0 mph30.6 kmh 30.36 in1028.1 mb 0.00 in0.0 mm 0.00 in/hr0.0 mm/hr 0.00 in0.0 mm
07:37 AM 13.7°F-10.2°C 11.1°F-11.6°C 89% 17.0 mph NE27.4 kmh NE 24.0 mph38.6 kmh 30.36 in1028.1 mb 0.00 in0.0 mm 0.00 in/hr0.0 mm/hr 0.00 in0.0 mm
07:32 AM 13.7°F-10.2°C 11.1°F-11.6°C 89% 17.0 mph NE27.4 kmh NE 24.0 mph38.6 kmh 30.36 in1028.1 mb 0.00 in0.0 mm 0.00 in/hr0.0 mm/hr 0.00 in0.0 mm
07:27 AM 13.9°F-10.1°C 11.3°F-11.5°C 89% 18.0 mph NE29.0 kmh NE 24.0 mph38.6 kmh 30.35 in1027.8 mb 0.00 in0.0 mm 0.00 in/hr0.0 mm/hr 0.00 in0.0 mm
07:22 AM 14.0°F-10.0°C 11.4°F-11.4°C 89% 17.0 mph NE27.4 kmh NE 24.0 mph38.6 kmh 30.34 in1027.4 mb 0.00 in0.0 mm 0.00 in/hr0.0 mm/hr 0.00 in0.0 mm
07:17 AM 14.3°F-9.8°C 11.7°F-11.3°C 89% 15.0 mph NE24.1 kmh NE 20.0 mph32.2 kmh 30.34 in1027.4 mb 0.00 in0.0 mm 0.00 in/hr0.0 mm/hr 0.00 in0.0 mm
07:12 AM 14.3°F-9.8°C 11.9°F-11.2°C 90% 17.0 mph NE27.4 kmh NE 24.0 mph38.6 kmh 30.33 in1027.1 mb 0.00 in0.0 mm 0.00 in/hr0.0 mm/hr 0.00 in0.0 mm
07:07 AM 14.4°F-9.8°C 12.0°F-11.1°C 90% 17.0 mph NE27.4 kmh NE 24.0 mph38.6 kmh 30.33 in1027.1 mb 0.00 in0.0 mm 0.00 in/hr0.0 mm/hr 0.00 in0.0 mm
07:02 AM 14.5°F-9.7°C 12.1°F-11.1°C 90% 17.0 mph NE27.4 kmh NE 20.0 mph32.2 kmh 30.32 in1026.8 mb 0.00 in0.0 mm 0.00 in/hr0.0 mm/hr 0.00 in0.0 mm
06:57 AM 14.5°F-9.7°C 12.1°F-11.1°C 90% 17.0 mph NE27.4 kmh NE 22.0 mph35.4 kmh 30.32 in1026.8 mb 0.00 in0.0 mm 0.00 in/hr0.0 mm/hr 0.00 in0.0 mm
06:52 AM 14.6°F-9.7°C 12.2°F-11.0°C 90% 19.0 mph NE30.6 kmh NE 26.0 mph41.8 kmh 30.31 in1026.4 mb 0.00 in0.0 mm 0.00 in/hr0.0 mm/hr 0.00 in0.0 mm
06:47 AM 14.8°F-9.6°C 12.4°F-10.9°C 90% 18.0 mph NE29.0 kmh NE 26.0 mph41.8 kmh 30.31 in1026.4 mb 0.00 in0.0 mm 0.00 in/hr0.0 mm/hr 0.00 in0.0 mm
06:42 AM 15.1°F-9.4°C 12.7°F-10.7°C 90% 18.0 mph NE29.0 kmh NE 23.0 mph37.0 kmh 30.30 in1026.1 mb 0.00 in0.0 mm 0.00 in/hr0.0 mm/hr 0.00 in0.0 mm
06:37 AM 15.2°F-9.3°C 12.8°F-10.7°C 90% 19.0 mph NNE30.6 kmh NNE 24.0 mph38.6 kmh 30.29 in1025.7 mb 0.00 in0.0 mm 0.00 in/hr0.0 mm/hr 0.00 in0.0 mm
06:32 AM 15.6°F-9.1°C 13.2°F-10.4°C 90% 17.0 mph NNE27.4 kmh NNE 24.0 mph38.6 kmh 30.29 in1025.7 mb 0.00 in0.0 mm 0.00 in/hr0.0 mm/hr 0.00 in0.0 mm
06:27 AM 16.0°F-8.9°C 13.8°F-10.1°C 91% 16.0 mph NNE25.7 kmh NNE 22.0 mph35.4 kmh 30.29 in1025.7 mb 0.00 in0.0 mm 0.00 in/hr0.0 mm/hr 0.00 in0.0 mm
06:22 AM 16.2°F-8.8°C 14.0°F-10.0°C 91% 16.0 mph NNE25.7 kmh NNE 22.0 mph35.4 kmh 30.29 in1025.7 mb 0.00 in0.0 mm 0.00 in/hr0.0 mm/hr 0.00 in0.0 mm
06:17 AM 16.5°F-8.6°C 14.3°F-9.8°C 91% 15.0 mph NNE24.1 kmh NNE 21.0 mph33.8 kmh 30.28 in1025.4 mb 0.00 in0.0 mm 0.00 in/hr0.0 mm/hr 0.00 in0.0 mm
06:12 AM 17.0°F-8.3°C 14.8°F-9.6°C 91% 15.0 mph NNE24.1 kmh NNE 20.0 mph32.2 kmh 30.27 in1025.1 mb 0.00 in0.0 mm 0.00 in/hr0.0 mm/hr 0.00 in0.0 mm
06:07 AM 17.2°F-8.2°C 15.0°F-9.4°C 91% 14.0 mph NNE22.5 kmh NNE 20.0 mph32.2 kmh 30.27 in1025.1 mb 0.00 in0.0 mm 0.00 in/hr0.0 mm/hr 0.00 in0.0 mm
06:02 AM 17.5°F-8.1°C 15.3°F-9.3°C 91% 14.0 mph NNE22.5 kmh NNE 19.0 mph30.6 kmh 30.26 in1024.7 mb 0.00 in0.0 mm 0.00 in/hr0.0 mm/hr 0.00 in0.0 mm
05:57 AM 17.8°F-7.9°C 15.4°F-9.2°C 90% 14.0 mph NE22.5 kmh NE 20.0 mph32.2 kmh 30.26 in1024.7 mb 0.00 in0.0 mm 0.00 in/hr0.0 mm/hr 0.00 in0.0 mm
05:52 AM 18.7°F-7.4°C 16.3°F-8.7°C 90% 14.0 mph NE22.5 kmh NE 25.0 mph40.2 kmh 30.26 in1024.7 mb 0.00 in0.0 mm 0.00 in/hr0.0 mm/hr 0.00 in0.0 mm
05:47 AM 20.2°F-6.6°C 18.2°F-7.7°C 92% 10.0 mph NE16.1 kmh NE 25.0 mph40.2 kmh 30.26 in1024.7 mb 0.00 in0.0 mm 0.00 in/hr0.0 mm/hr 0.00 in0.0 mm
05:42 AM 21.8°F-5.7°C 20.1°F-6.6°C 93% 6.0 mph ENE9.7 kmh ENE 10.0 mph16.1 kmh 30.24 in1024.0 mb 0.00 in0.0 mm 0.00 in/hr0.0 mm/hr 0.00 in0.0 mm
05:37 AM 21.8°F-5.7°C 20.1°F-6.6°C 93% 5.0 mph ENE8.0 kmh ENE 7.0 mph11.3 kmh 30.24 in1024.0 mb 0.00 in0.0 mm 0.00 in/hr0.0 mm/hr 0.00 in0.0 mm
05:32 AM 21.7°F-5.7°C 20.0°F-6.7°C 93% 6.0 mph ENE9.7 kmh ENE 8.0 mph12.9 kmh 30.23 in1023.7 mb 0.00 in0.0 mm 0.00 in/hr0.0 mm/hr 0.00 in0.0 mm
05:27 AM 21.7°F-5.7°C 20.0°F-6.7°C 93% 6.0 mph ENE9.7 kmh ENE 8.0 mph12.9 kmh 30.23 in1023.7 mb 0.00 in0.0 mm 0.00 in/hr0.0 mm/hr 0.00 in0.0 mm
05:22 AM 21.9°F-5.6°C 20.2°F-6.6°C 93% 5.0 mph ENE8.0 kmh ENE 8.0 mph12.9 kmh 30.23 in1023.7 mb 0.00 in0.0 mm 0.00 in/hr0.0 mm/hr 0.00 in0.0 mm
05:17 AM 22.1°F-5.5°C 20.4°F-6.4°C 93% 4.0 mph ENE6.4 kmh ENE 6.0 mph9.7 kmh 30.22 in1023.4 mb 0.00 in0.0 mm 0.00 in/hr0.0 mm/hr 0.00 in0.0 mm
05:12 AM 22.1°F-5.5°C 20.4°F-6.4°C 93% 4.0 mph ENE6.4 kmh ENE 6.0 mph9.7 kmh 30.22 in1023.4 mb 0.00 in0.0 mm 0.00 in/hr0.0 mm/hr 0.00 in0.0 mm
05:07 AM 22.0°F-5.6°C 20.3°F-6.5°C 93% 4.0 mph E6.4 kmh E 6.0 mph9.7 kmh 30.21 in1023.0 mb 0.00 in0.0 mm 0.00 in/hr0.0 mm/hr 0.00 in0.0 mm
05:02 AM 22.0°F-5.6°C 20.3°F-6.5°C 93% 5.0 mph E8.0 kmh E 7.0 mph11.3 kmh 30.20 in1022.7 mb 0.00 in0.0 mm 0.00 in/hr0.0 mm/hr 0.00 in0.0 mm
04:57 AM 21.9°F-5.6°C 20.2°F-6.6°C 93% 5.0 mph E8.0 kmh E 8.0 mph12.9 kmh 30.20 in1022.7 mb 0.00 in0.0 mm 0.00 in/hr0.0 mm/hr 0.00 in0.0 mm
04:52 AM 22.0°F-5.6°C 20.3°F-6.5°C 93% 6.0 mph E9.7 kmh E 8.0 mph12.9 kmh 30.20 in1022.7 mb 0.00 in0.0 mm 0.00 in/hr0.0 mm/hr 0.00 in0.0 mm
04:47 AM 22.2°F-5.4°C 20.5°F-6.4°C 93% 4.0 mph E6.4 kmh E 8.0 mph12.9 kmh 30.20 in1022.7 mb 0.00 in0.0 mm 0.00 in/hr0.0 mm/hr 0.00 in0.0 mm
04:42 AM 22.2°F-5.4°C 20.5°F-6.4°C 93% 4.0 mph E6.4 kmh E 7.0 mph11.3 kmh 30.20 in1022.7 mb 0.00 in0.0 mm 0.00 in/hr0.0 mm/hr 0.00 in0.0 mm
04:37 AM 22.1°F-5.5°C 20.4°F-6.4°C 93% 5.0 mph E8.0 kmh E 8.0 mph12.9 kmh 30.20 in1022.7 mb 0.00 in0.0 mm 0.00 in/hr0.0 mm/hr 0.00 in0.0 mm
04:32 AM 22.2°F-5.4°C 20.5°F-6.4°C 93% 5.0 mph E8.0 kmh E 8.0 mph12.9 kmh 30.19 in1022.4 mb 0.00 in0.0 mm 0.00 in/hr0.0 mm/hr 0.00 in0.0 mm
04:27 AM 22.4°F-5.3°C 20.7°F-6.3°C 93% 5.0 mph E8.0 kmh E 7.0 mph11.3 kmh 30.19 in1022.4 mb 0.00 in0.0 mm 0.00 in/hr0.0 mm/hr 0.00 in0.0 mm
04:22 AM 22.4°F-5.3°C 20.7°F-6.3°C 93% 5.0 mph E8.0 kmh E 7.0 mph11.3 kmh 30.19 in1022.4 mb 0.00 in0.0 mm 0.00 in/hr0.0 mm/hr 0.00 in0.0 mm
04:17 AM 22.4°F-5.3°C 20.7°F-6.3°C 93% 5.0 mph E8.0 kmh E 7.0 mph11.3 kmh 30.18 in1022.0 mb 0.00 in0.0 mm 0.00 in/hr0.0 mm/hr 0.00 in0.0 mm
04:12 AM 22.5°F-5.3°C 20.8°F-6.2°C 93% 5.0 mph E8.0 kmh E 7.0 mph11.3 kmh 30.18 in1022.0 mb 0.00 in0.0 mm 0.00 in/hr0.0 mm/hr 0.00 in0.0 mm
04:07 AM 22.5°F-5.3°C 20.8°F-6.2°C 93% 5.0 mph E8.0 kmh E 7.0 mph11.3 kmh 30.17 in1021.7 mb 0.00 in0.0 mm 0.00 in/hr0.0 mm/hr 0.00 in0.0 mm
04:02 AM 22.5°F-5.3°C 20.8°F-6.2°C 93% 5.0 mph E8.0 kmh E 8.0 mph12.9 kmh 30.17 in1021.7 mb 0.00 in0.0 mm 0.00 in/hr0.0 mm/hr 0.00 in0.0 mm
03:57 AM 22.6°F-5.2°C 20.9°F-6.2°C 93% 5.0 mph E8.0 kmh E 8.0 mph12.9 kmh 30.17 in1021.7 mb 0.00 in0.0 mm 0.00 in/hr0.0 mm/hr 0.00 in0.0 mm
03:52 AM 22.7°F-5.2°C 21.0°F-6.1°C 93% 5.0 mph E8.0 kmh E 8.0 mph12.9 kmh 30.16 in1021.3 mb 0.00 in0.0 mm 0.00 in/hr0.0 mm/hr 0.00 in0.0 mm
03:47 AM 22.8°F-5.1°C 21.1°F-6.1°C 93% 4.0 mph E6.4 kmh E 7.0 mph11.3 kmh 30.16 in1021.3 mb 0.00 in0.0 mm 0.00 in/hr0.0 mm/hr 0.00 in0.0 mm
03:42 AM 22.7°F-5.2°C 21.0°F-6.1°C 93% 5.0 mph E8.0 kmh E 8.0 mph12.9 kmh 30.15 in1021.0 mb 0.00 in0.0 mm 0.00 in/hr0.0 mm/hr 0.00 in0.0 mm
03:37 AM 22.6°F-5.2°C 20.9°F-6.2°C 93% 5.0 mph E8.0 kmh E 8.0 mph12.9 kmh 30.15 in1021.0 mb 0.00 in0.0 mm 0.00 in/hr0.0 mm/hr 0.00 in0.0 mm
03:32 AM 22.6°F-5.2°C 20.9°F-6.2°C 93% 5.0 mph E8.0 kmh E 8.0 mph12.9 kmh 30.15 in1021.0 mb 0.00 in0.0 mm 0.00 in/hr0.0 mm/hr 0.00 in0.0 mm
03:27 AM 22.6°F-5.2°C 20.9°F-6.2°C 93% 6.0 mph E9.7 kmh E 8.0 mph12.9 kmh 30.14 in1020.7 mb 0.00 in0.0 mm 0.00 in/hr0.0 mm/hr 0.00 in0.0 mm
03:22 AM 22.7°F-5.2°C 21.0°F-6.1°C 93% 6.0 mph E9.7 kmh E 10.0 mph16.1 kmh 30.14 in1020.7 mb 0.00 in0.0 mm 0.00 in/hr0.0 mm/hr 0.00 in0.0 mm
03:17 AM 22.7°F-5.2°C 21.0°F-6.1°C 93% 7.0 mph E11.3 kmh E 10.0 mph16.1 kmh 30.14 in1020.7 mb 0.00 in0.0 mm 0.00 in/hr0.0 mm/hr 0.00 in0.0 mm
03:12 AM 22.7°F-5.2°C 21.0°F-6.1°C 93% 7.0 mph E11.3 kmh E 10.0 mph16.1 kmh 30.13 in1020.3 mb 0.00 in0.0 mm 0.00 in/hr0.0 mm/hr 0.00 in0.0 mm
03:07 AM 22.8°F-5.1°C 21.1°F-6.1°C 93% 6.0 mph E9.7 kmh E 10.0 mph16.1 kmh 30.13 in1020.3 mb 0.00 in0.0 mm 0.00 in/hr0.0 mm/hr 0.00 in0.0 mm
03:02 AM 22.9°F-5.1°C 21.2°F-6.0°C 93% 7.0 mph E11.3 kmh E 10.0 mph16.1 kmh 30.13 in1020.3 mb 0.00 in0.0 mm 0.00 in/hr0.0 mm/hr 0.00 in0.0 mm
02:57 AM 22.8°F-5.1°C 21.1°F-6.1°C 93% 7.0 mph E11.3 kmh E 10.0 mph16.1 kmh 30.13 in1020.3 mb 0.00 in0.0 mm 0.00 in/hr0.0 mm/hr 0.00 in0.0 mm
02:52 AM 22.9°F-5.1°C 21.2°F-6.0°C 93% 7.0 mph E11.3 kmh E 10.0 mph16.1 kmh 30.13 in1020.3 mb 0.00 in0.0 mm 0.00 in/hr0.0 mm/hr 0.00 in0.0 mm
02:47 AM 23.0°F-5.0°C 21.3°F-5.9°C 93% 7.0 mph E11.3 kmh E 10.0 mph16.1 kmh 30.13 in1020.3 mb 0.00 in0.0 mm 0.00 in/hr0.0 mm/hr 0.00 in0.0 mm
02:42 AM 23.2°F-4.9°C 21.5°F-5.8°C 93% 7.0 mph E11.3 kmh E 10.0 mph16.1 kmh 30.13 in1020.3 mb 0.00 in0.0 mm 0.00 in/hr0.0 mm/hr 0.00 in0.0 mm
02:37 AM 23.2°F-4.9°C 21.5°F-5.8°C 93% 7.0 mph E11.3 kmh E 10.0 mph16.1 kmh 30.12 in1020.0 mb 0.00 in0.0 mm 0.00 in/hr0.0 mm/hr 0.00 in0.0 mm
02:32 AM 23.2°F-4.9°C 21.5°F-5.8°C 93% 7.0 mph E11.3 kmh E 10.0 mph16.1 kmh 30.12 in1020.0 mb 0.00 in0.0 mm 0.00 in/hr0.0 mm/hr 0.00 in0.0 mm
02:27 AM 23.4°F-4.8°C 21.9°F-5.6°C 94% 7.0 mph E11.3 kmh E 10.0 mph16.1 kmh 30.12 in1020.0 mb 0.00 in0.0 mm 0.00 in/hr0.0 mm/hr 0.00 in0.0 mm
02:22 AM 23.4°F-4.8°C 21.9°F-5.6°C 94% 6.0 mph E9.7 kmh E 9.0 mph14.5 kmh 30.12 in1020.0 mb 0.00 in0.0 mm 0.00 in/hr0.0 mm/hr 0.00 in0.0 mm
02:17 AM 23.5°F-4.7°C 22.0°F-5.6°C 94% 6.0 mph E9.7 kmh E 9.0 mph14.5 kmh 30.12 in1020.0 mb 0.00 in0.0 mm 0.00 in/hr0.0 mm/hr 0.00 in0.0 mm
02:12 AM 23.4°F-4.8°C 21.9°F-5.6°C 94% 6.0 mph E9.7 kmh E 9.0 mph14.5 kmh 30.11 in1019.6 mb 0.00 in0.0 mm 0.00 in/hr0.0 mm/hr 0.00 in0.0 mm
02:07 AM 23.3°F-4.8°C 21.6°F-5.8°C 93% 6.0 mph E9.7 kmh E 8.0 mph12.9 kmh 30.11 in1019.6 mb 0.00 in0.0 mm 0.00 in/hr0.0 mm/hr 0.00 in0.0 mm
02:02 AM 23.3°F-4.8°C 21.6°F-5.8°C 93% 6.0 mph E9.7 kmh E 9.0 mph14.5 kmh 30.11 in1019.6 mb 0.00 in0.0 mm 0.00 in/hr0.0 mm/hr 0.00 in0.0 mm
01:57 AM 23.3°F-4.8°C 21.6°F-5.8°C 93% 7.0 mph E11.3 kmh E 10.0 mph16.1 kmh 30.11 in1019.6 mb 0.00 in0.0 mm 0.00 in/hr0.0 mm/hr 0.00 in0.0 mm
01:52 AM 23.3°F-4.8°C 21.6°F-5.8°C 93% 8.0 mph E12.9 kmh E 11.0 mph17.7 kmh 30.11 in1019.6 mb 0.00 in0.0 mm 0.00 in/hr0.0 mm/hr 0.00 in0.0 mm
01:47 AM 23.4°F-4.8°C 21.7°F-5.7°C 93% 8.0 mph E12.9 kmh E 11.0 mph17.7 kmh 30.10 in1019.3 mb 0.00 in0.0 mm 0.00 in/hr0.0 mm/hr 0.00 in0.0 mm
01:42 AM 23.5°F-4.7°C 21.8°F-5.7°C 93% 7.0 mph E11.3 kmh E 11.0 mph17.7 kmh 30.10 in1019.3 mb 0.00 in0.0 mm 0.00 in/hr0.0 mm/hr 0.00 in0.0 mm
01:37 AM 23.5°F-4.7°C 22.0°F-5.6°C 94% 6.0 mph E9.7 kmh E 10.0 mph16.1 kmh 30.10 in1019.3 mb 0.00 in0.0 mm 0.00 in/hr0.0 mm/hr 0.00 in0.0 mm
01:32 AM 23.6°F-4.7°C 22.1°F-5.5°C 94% 6.0 mph E9.7 kmh E 10.0 mph16.1 kmh 30.10 in1019.3 mb 0.00 in0.0 mm 0.00 in/hr0.0 mm/hr 0.00 in0.0 mm
01:27 AM 23.6°F-4.7°C 22.1°F-5.5°C 94% 6.0 mph E9.7 kmh E 10.0 mph16.1 kmh 30.09 in1019.0 mb 0.00 in0.0 mm 0.00 in/hr0.0 mm/hr 0.00 in0.0 mm
01:22 AM 23.6°F-4.7°C 22.1°F-5.5°C 94% 6.0 mph E9.7 kmh E 9.0 mph14.5 kmh 30.09 in1019.0 mb 0.00 in0.0 mm 0.00 in/hr0.0 mm/hr 0.00 in0.0 mm
01:17 AM 23.7°F-4.6°C 22.0°F-5.6°C 93% 6.0 mph E9.7 kmh E 9.0 mph14.5 kmh 30.09 in1019.0 mb 0.00 in0.0 mm 0.00 in/hr0.0 mm/hr 0.00 in0.0 mm
01:12 AM 23.8°F-4.6°C 22.3°F-5.4°C 94% 6.0 mph E9.7 kmh E 9.0 mph14.5 kmh 30.09 in1019.0 mb 0.00 in0.0 mm 0.00 in/hr0.0 mm/hr 0.00 in0.0 mm
01:07 AM 23.9°F-4.5°C 22.4°F-5.3°C 94% 6.0 mph E9.7 kmh E 8.0 mph12.9 kmh 30.09 in1019.0 mb 0.00 in0.0 mm 0.00 in/hr0.0 mm/hr 0.00 in0.0 mm
01:02 AM 24.0°F-4.4°C 22.5°F-5.3°C 94% 5.0 mph E8.0 kmh E 8.0 mph12.9 kmh 30.08 in1018.6 mb 0.00 in0.0 mm 0.00 in/hr0.0 mm/hr 0.00 in0.0 mm
12:57 AM 24.1°F-4.4°C 22.6°F-5.2°C 94% 5.0 mph E8.0 kmh E 8.0 mph12.9 kmh 30.08 in1018.6 mb 0.00 in0.0 mm 0.00 in/hr0.0 mm/hr 0.00 in0.0 mm
12:52 AM 24.0°F-4.4°C 22.5°F-5.3°C 94% 6.0 mph E9.7 kmh E 10.0 mph16.1 kmh 30.08 in1018.6 mb 0.00 in0.0 mm 0.00 in/hr0.0 mm/hr 0.00 in0.0 mm
12:47 AM 24.0°F-4.4°C 22.5°F-5.3°C 94% 7.0 mph E11.3 kmh E 10.0 mph16.1 kmh 30.08 in1018.6 mb 0.00 in0.0 mm 0.00 in/hr0.0 mm/hr 0.00 in0.0 mm
12:42 AM 24.0°F-4.4°C 22.5°F-5.3°C 94% 6.0 mph E9.7 kmh E 9.0 mph14.5 kmh 30.07 in1018.3 mb 0.00 in0.0 mm 0.00 in/hr0.0 mm/hr 0.00 in0.0 mm
12:37 AM 24.0°F-4.4°C 22.5°F-5.3°C 94% 6.0 mph E9.7 kmh E 9.0 mph14.5 kmh 30.07 in1018.3 mb 0.00 in0.0 mm 0.00 in/hr0.0 mm/hr 0.00 in0.0 mm
12:32 AM 24.1°F-4.4°C 22.6°F-5.2°C 94% 6.0 mph E9.7 kmh E 9.0 mph14.5 kmh 30.07 in1018.3 mb 0.00 in0.0 mm 0.00 in/hr0.0 mm/hr 0.00 in0.0 mm
12:27 AM 24.2°F-4.3°C 22.7°F-5.2°C 94% 6.0 mph E9.7 kmh E 10.0 mph16.1 kmh 30.07 in1018.3 mb 0.00 in0.0 mm 0.00 in/hr0.0 mm/hr 0.00 in0.0 mm
12:22 AM 24.1°F-4.4°C 22.6°F-5.2°C 94% 7.0 mph E11.3 kmh E 10.0 mph16.1 kmh 30.07 in1018.3 mb 0.00 in0.0 mm 0.00 in/hr0.0 mm/hr 0.00 in0.0 mm
12:17 AM 24.2°F-4.3°C 22.7°F-5.2°C 94% 6.0 mph E9.7 kmh E 10.0 mph16.1 kmh 30.07 in1018.3 mb 0.00 in0.0 mm 0.00 in/hr0.0 mm/hr 0.00 in0.0 mm
12:12 AM 24.2°F-4.3°C 22.7°F-5.2°C 94% 6.0 mph E9.7 kmh E 10.0 mph16.1 kmh 30.06 in1017.9 mb 0.00 in0.0 mm 0.00 in/hr0.0 mm/hr 0.00 in0.0 mm
12:07 AM 24.3°F-4.3°C 22.8°F-5.1°C 94% 6.0 mph E9.7 kmh E 9.0 mph14.5 kmh 30.06 in1017.9 mb 0.00 in0.0 mm 0.00 in/hr0.0 mm/hr 0.00 in0.0 mm
12:02 AM 24.3°F-4.3°C 22.8°F-5.1°C 94% 6.0 mph ESE9.7 kmh ESE 9.0 mph14.5 kmh 30.06 in1017.9 mb 0.00 in0.0 mm 0.00 in/hr0.0 mm/hr 0.00 in0.0 mm